Terminal Aerodrome Forecast
Issued by NWS

Home | Current Version | Previous Version | Text Only | Print | Product List | Glossary On
Versions: 1 2 3 4 5 6 7 8 9 10 11 12 13 14 15 16 17 18 19 20 21 22 23 24 25 26 27 28 29 30
928
FTUS46 KSGX 291442 AAA
TAFSAN
TAF AMD
KSAN 291442Z 2915/3018 VRB03KT P6SM FEW100 SCT250
     FM291900 29010KT P6SM SCT080
     FM300200 VRB04KT P6SM SKC
     FM301000 VRB04KT P6SM SCT007
      TEMPO 3011/3015 2SM BR BKN005=

USA.gov is the U.S. government's official web portal to all federal, state and local government web resources and services.